createdAt,value
2023-03-23T15:58:29.056Z,0.88
2023-03-23T16:00:56.565Z,0.90
2023-03-23T16:03:30.576Z,0.80
2023-03-23T16:06:00.010Z,0.80
2023-03-23T16:08:26.900Z,0.80
2023-03-23T16:10:53.394Z,1.10
2023-03-23T16:13:19.987Z,0.95
2023-03-23T16:15:47.931Z,0.95
2023-03-23T16:18:20.554Z,0.70
2023-03-23T16:20:49.073Z,1.00
2023-03-23T16:23:15.718Z,0.85
2023-03-23T16:25:42.572Z,1.00
2023-03-23T16:28:12.490Z,0.82
2023-03-23T16:30:39.766Z,1.02
2023-03-23T16:33:06.872Z,1.05
2023-03-23T16:35:34.264Z,0.90
2023-03-23T16:38:08.222Z,0.77
2023-03-23T16:40:38.639Z,0.90
2023-03-23T16:43:08.327Z,0.75
2023-03-23T16:45:37.285Z,1.23
2023-03-23T16:48:05.281Z,1.00
2023-03-23T16:50:32.769Z,1.10
2023-03-23T16:52:59.333Z,0.70
2023-03-23T16:55:27.143Z,1.13
2023-03-23T16:58:05.307Z,1.05
2023-03-23T17:00:40.679Z,1.00
2023-03-23T17:03:07.833Z,0.90
2023-03-23T17:05:36.436Z,0.85
2023-03-23T17:08:03.436Z,0.70
2023-03-23T17:10:31.251Z,0.90
2023-03-23T17:12:57.791Z,0.85
2023-03-23T17:15:25.594Z,0.80
2023-03-23T17:17:52.858Z,1.08
2023-03-23T17:20:19.532Z,0.98
2023-03-23T17:22:46.347Z,1.00
2023-03-23T17:25:13.548Z,0.68
2023-03-23T17:27:41.085Z,1.02
2023-03-23T17:30:09.018Z,1.10
2023-03-23T17:32:36.583Z,0.80
2023-03-23T17:35:05.453Z,0.90
2023-03-23T17:37:32.814Z,1.10
2023-03-23T17:39:59.530Z,0.90
2023-03-23T17:42:26.970Z,1.48
2023-03-23T17:44:53.957Z,3.22
2023-03-23T17:47:20.803Z,1.25
2023-03-23T17:49:47.879Z,0.80
2023-03-23T17:52:14.829Z,0.80
2023-03-23T17:54:41.506Z,0.88
2023-03-23T17:57:08.495Z,0.95
2023-03-23T17:59:35.320Z,1.00
2023-03-23T18:02:01.918Z,1.10
2023-03-23T18:04:28.465Z,0.80
2023-03-23T18:06:58.398Z,0.95
2023-03-23T18:09:25.503Z,0.88
2023-03-23T18:11:52.397Z,0.88
2023-03-23T18:14:19.781Z,1.30
2023-03-23T18:16:47.335Z,1.10
2023-03-23T18:19:13.932Z,1.00
2023-03-23T18:21:41.084Z,1.20
2023-03-23T18:24:08.055Z,1.15
2023-03-23T18:26:35.058Z,1.85
2023-03-23T18:29:01.916Z,1.67
2023-03-23T18:31:29.049Z,1.85
2023-03-23T18:33:56.043Z,1.10
2023-03-23T18:36:26.019Z,1.40
2023-03-23T18:38:56.574Z,1.52
2023-03-23T18:41:23.347Z,1.00
2023-03-23T18:43:49.963Z,1.30
2023-03-23T18:46:16.565Z,1.20
2023-03-23T18:48:43.846Z,1.10
2023-03-23T18:51:11.368Z,1.25
2023-03-23T18:53:37.982Z,0.98
2023-03-23T18:56:11.056Z,1.20
2023-03-23T18:58:38.471Z,1.20
2023-03-23T19:01:11.630Z,1.23
2023-03-23T19:03:39.986Z,1.10
2023-03-23T19:06:08.215Z,1.20
2023-03-23T19:08:34.856Z,1.00
2023-03-23T19:11:03.742Z,1.13
2023-03-23T19:13:34.062Z,0.93
2023-03-23T19:16:00.933Z,1.10
2023-03-23T19:18:27.929Z,1.30
2023-03-23T19:21:13.736Z,1.00
2023-03-23T19:23:41.494Z,1.55
2023-03-23T19:26:08.119Z,1.17
2023-03-23T19:29:09.722Z,1.15
2023-03-23T19:31:24.868Z,1.00
2023-03-23T19:33:53.094Z,0.98
2023-03-23T19:36:21.949Z,1.10
2023-03-23T19:38:49.326Z,1.08
2023-03-23T19:41:18.717Z,1.05
2023-03-23T19:43:45.965Z,1.23
2023-03-23T19:46:14.027Z,1.00
2023-03-23T19:48:40.889Z,1.00
2023-03-23T19:51:09.059Z,1.17
2023-03-23T19:53:35.989Z,1.40
2023-03-23T19:56:03.752Z,1.10
2023-03-23T19:58:32.379Z,0.90
2023-03-23T20:01:01.095Z,1.10
2023-03-23T20:03:28.407Z,1.42
2023-03-23T20:06:02.849Z,1.27
2023-03-23T20:08:31.302Z,1.20
2023-03-23T20:11:06.104Z,1.30
2023-03-23T20:13:32.691Z,1.23
2023-03-23T20:16:00.827Z,1.48
2023-03-23T20:18:29.206Z,1.30
2023-03-23T20:21:04.531Z,1.35
2023-03-23T20:23:31.438Z,1.58
2023-03-23T20:26:04.353Z,1.30
2023-03-23T20:28:30.996Z,1.20
2023-03-23T20:31:19.803Z,1.30
2023-03-23T20:34:01.039Z,1.33
2023-03-23T20:36:34.334Z,1.40
2023-03-23T20:39:05.684Z,1.40
2023-03-23T20:41:35.758Z,1.63
2023-03-23T20:44:02.652Z,1.50
2023-03-23T20:46:29.284Z,1.60
2023-03-23T20:48:55.775Z,1.50
2023-03-23T20:51:22.608Z,1.73
2023-03-23T20:53:49.191Z,1.70
2023-03-23T20:56:15.972Z,1.48
2023-03-23T20:58:42.581Z,1.52
2023-03-23T21:01:10.730Z,1.42
2023-03-23T21:03:41.394Z,1.60
2023-03-23T21:06:08.521Z,1.70
2023-03-23T21:08:36.514Z,1.60
2023-03-23T21:11:05.084Z,1.30
2023-03-23T21:13:32.338Z,1.42
2023-03-23T21:16:02.161Z,1.30
2023-03-23T21:18:29.549Z,1.40
2023-03-23T21:20:57.186Z,1.67
2023-03-23T21:23:26.480Z,1.75
2023-03-23T21:25:54.566Z,1.55
2023-03-23T21:28:22.024Z,1.50
2023-03-23T21:30:49.744Z,1.70
2023-03-23T21:33:16.995Z,1.45
2023-03-23T21:35:43.748Z,1.70
2023-03-23T21:38:14.206Z,1.85
2023-03-23T21:40:42.137Z,1.75
2023-03-23T21:43:14.584Z,2.13
2023-03-23T21:45:42.298Z,1.98
2023-03-23T21:48:10.431Z,2.00
2023-03-23T21:50:38.668Z,1.90
2023-03-23T21:53:05.721Z,2.10
2023-03-23T21:55:33.543Z,2.22
2023-03-23T21:58:01.351Z,2.53
2023-03-23T22:00:28.387Z,3.08
2023-03-23T22:02:55.295Z,2.95
2023-03-23T22:05:22.173Z,3.05
2023-03-23T22:07:49.214Z,3.00
2023-03-23T22:10:15.838Z,2.88
2023-03-23T22:12:42.386Z,2.90
2023-03-23T22:15:14.992Z,2.70
2023-03-23T22:17:41.669Z,2.60
2023-03-23T22:20:11.792Z,2.75
2023-03-23T22:22:39.059Z,2.97
2023-03-23T22:25:06.229Z,2.70
2023-03-23T22:27:32.863Z,2.92
2023-03-23T22:29:59.438Z,3.20
2023-03-23T22:32:26.091Z,3.58
2023-03-23T22:34:53.539Z,3.40
2023-03-23T22:37:20.299Z,3.10
2023-03-23T22:39:47.014Z,3.53
2023-03-23T22:42:13.647Z,3.15
2023-03-23T22:44:40.754Z,3.00
2023-03-23T22:47:08.404Z,3.60
2023-03-23T22:49:35.437Z,3.40
2023-03-23T22:52:02.089Z,3.75
2023-03-23T22:54:28.767Z,3.58
2023-03-23T22:56:55.752Z,3.80
2023-03-23T22:59:22.643Z,3.40
2023-03-23T23:01:49.372Z,3.65
2023-03-23T23:04:16.254Z,3.13
2023-03-23T23:06:42.921Z,3.60
2023-03-23T23:09:10.343Z,4.15
2023-03-23T23:11:36.962Z,3.80
2023-03-23T23:14:03.664Z,3.72
2023-03-23T23:16:31.157Z,4.70
2023-03-23T23:18:57.865Z,4.15
2023-03-23T23:21:26.532Z,4.90
2023-03-23T23:23:53.402Z,4.65
2023-03-23T23:26:20.588Z,5.07
2023-03-23T23:28:48.529Z,5.00
2023-03-23T23:31:35.559Z,4.78
2023-03-23T23:34:04.212Z,4.60
2023-03-23T23:36:32.317Z,5.60
2023-03-23T23:39:01.012Z,5.82
2023-03-23T23:41:28.093Z,5.45
2023-03-23T23:43:54.705Z,5.82
2023-03-23T23:46:21.559Z,5.65
2023-03-23T23:48:48.395Z,6.32
2023-03-23T23:51:16.443Z,6.10
2023-03-23T23:53:53.543Z,6.22
2023-03-23T23:56:21.533Z,6.20
2023-03-23T23:58:48.863Z,6.50
